sensor_id;sensor_type;location;lat;lon;timestamp;P1;durP1;ratioP1;P2;durP2;ratioP2
65543;SDS011;52173;45.204;39.240;2023-07-31T03:34:54;16.55;;;10.68;;
65543;SDS011;52173;45.204;39.240;2023-07-31T03:37:20;6.88;;;4.85;;
65543;SDS011;52173;45.204;39.240;2023-07-31T03:39:46;7.13;;;5.28;;
65543;SDS011;52173;45.204;39.240;2023-07-31T03:42:13;9.20;;;5.45;;
65543;SDS011;52173;45.204;39.240;2023-07-31T03:44:39;10.88;;;5.03;;
65543;SDS011;52173;45.204;39.240;2023-07-31T03:47:05;8.98;;;4.47;;
65543;SDS011;52173;45.204;39.240;2023-07-31T03:49:31;8.15;;;4.70;;
65543;SDS011;52173;45.204;39.240;2023-07-31T03:51:57;11.48;;;5.05;;
65543;SDS011;52173;45.204;39.240;2023-07-31T03:54:23;13.25;;;5.25;;
65543;SDS011;52173;45.204;39.240;2023-07-31T03:56:49;7.90;;;4.80;;
65543;SDS011;52173;45.204;39.240;2023-07-31T03:59:16;7.80;;;4.93;;
65543;SDS011;52173;45.204;39.240;2023-07-31T04:01:42;8.98;;;4.90;;
65543;SDS011;52173;45.204;39.240;2023-07-31T04:04:08;14.10;;;4.72;;
65543;SDS011;52173;45.204;39.240;2023-07-31T04:06:34;9.80;;;4.70;;
65543;SDS011;52173;45.204;39.240;2023-07-31T04:09:00;9.00;;;4.63;;
65543;SDS011;52173;45.204;39.240;2023-07-31T04:11:27;10.68;;;5.00;;
65543;SDS011;52173;45.204;39.240;2023-07-31T04:13:53;7.28;;;4.68;;
65543;SDS011;52173;45.204;39.240;2023-07-31T04:16:19;7.05;;;4.40;;
65543;SDS011;52173;45.204;39.240;2023-07-31T04:18:45;16.92;;;4.95;;
65543;SDS011;52173;45.204;39.240;2023-07-31T04:21:11;7.68;;;4.82;;
65543;SDS011;52173;45.204;39.240;2023-07-31T04:23:37;12.80;;;5.35;;
65543;SDS011;52173;45.204;39.240;2023-07-31T04:26:03;14.13;;;5.07;;
65543;SDS011;52173;45.204;39.240;2023-07-31T04:28:30;8.25;;;4.50;;
65543;SDS011;52173;45.204;39.240;2023-07-31T04:31:22;7.20;;;4.63;;
65543;SDS011;52173;45.204;39.240;2023-07-31T04:33:48;11.23;;;4.80;;
65543;SDS011;52173;45.204;39.240;2023-07-31T04:36:14;10.52;;;4.68;;
65543;SDS011;52173;45.204;39.240;2023-07-31T04:38:41;12.73;;;5.28;;
65543;SDS011;52173;45.204;39.240;2023-07-31T04:41:07;8.60;;;4.35;;
65543;SDS011;52173;45.204;39.240;2023-07-31T04:43:33;8.63;;;4.28;;
65543;SDS011;52173;45.204;39.240;2023-07-31T04:45:59;7.47;;;4.53;;
65543;SDS011;52173;45.204;39.240;2023-07-31T04:48:25;7.57;;;4.15;;
65543;SDS011;52173;45.204;39.240;2023-07-31T04:50:51;9.48;;;4.30;;
65543;SDS011;52173;45.204;39.240;2023-07-31T04:53:17;7.93;;;4.10;;
65543;SDS011;52173;45.204;39.240;2023-07-31T04:55:44;8.85;;;4.32;;
65543;SDS011;52173;45.204;39.240;2023-07-31T04:58:10;21.25;;;4.65;;
65543;SDS011;52173;45.204;39.240;2023-07-31T05:00:36;7.72;;;4.10;;
65543;SDS011;52173;45.204;39.240;2023-07-31T05:03:02;9.93;;;4.32;;
65543;SDS011;52173;45.204;39.240;2023-07-31T05:05:28;7.55;;;4.22;;
65543;SDS011;52173;45.204;39.240;2023-07-31T05:07:55;7.30;;;4.20;;
65543;SDS011;52173;45.204;39.240;2023-07-31T05:10:21;7.32;;;3.92;;
65543;SDS011;52173;45.204;39.240;2023-07-31T05:12:47;7.63;;;3.92;;
65543;SDS011;52173;45.204;39.240;2023-07-31T05:15:13;6.53;;;3.92;;
65543;SDS011;52173;45.204;39.240;2023-07-31T05:17:39;9.30;;;4.03;;
65543;SDS011;52173;45.204;39.240;2023-07-31T05:20:05;8.50;;;3.90;;
65543;SDS011;52173;45.204;39.240;2023-07-31T05:22:32;9.25;;;4.03;;
65543;SDS011;52173;45.204;39.240;2023-07-31T05:24:58;8.02;;;3.90;;
65543;SDS011;52173;45.204;39.240;2023-07-31T05:27:25;4.97;;;3.60;;
65543;SDS011;52173;45.204;39.240;2023-07-31T05:29:51;6.82;;;3.50;;
65543;SDS011;52173;45.204;39.240;2023-07-31T05:32:17;7.07;;;3.80;;
65543;SDS011;52173;45.204;39.240;2023-07-31T05:34:44;5.97;;;3.67;;
65543;SDS011;52173;45.204;39.240;2023-07-31T05:37:10;10.77;;;3.90;;
65543;SDS011;52173;45.204;39.240;2023-07-31T05:39:40;6.10;;;3.63;;
65543;SDS011;52173;45.204;39.240;2023-07-31T05:42:09;9.73;;;3.50;;
65543;SDS011;52173;45.204;39.240;2023-07-31T05:44:36;6.63;;;3.50;;
65543;SDS011;52173;45.204;39.240;2023-07-31T05:47:03;9.50;;;3.60;;
65543;SDS011;52173;45.204;39.240;2023-07-31T05:49:30;7.63;;;3.60;;
65543;SDS011;52173;45.204;39.240;2023-07-31T05:51:56;23.17;;;4.40;;
65543;SDS011;52173;45.204;39.240;2023-07-31T05:54:22;6.20;;;3.55;;
65543;SDS011;52173;45.204;39.240;2023-07-31T05:56:49;10.00;;;3.67;;
65543;SDS011;52173;45.204;39.240;2023-07-31T05:59:15;14.82;;;3.50;;
65543;SDS011;52173;45.204;39.240;2023-07-31T06:01:42;7.97;;;3.65;;
65543;SDS011;52173;45.204;39.240;2023-07-31T06:04:08;14.73;;;4.40;;
65543;SDS011;52173;45.204;39.240;2023-07-31T06:06:35;6.55;;;3.58;;
65543;SDS011;52173;45.204;39.240;2023-07-31T06:09:01;6.05;;;3.40;;
65543;SDS011;52173;45.204;39.240;2023-07-31T06:11:28;6.80;;;3.45;;
65543;SDS011;52173;45.204;39.240;2023-07-31T06:13:55;6.47;;;3.28;;
65543;SDS011;52173;45.204;39.240;2023-07-31T06:16:21;9.57;;;3.55;;
65543;SDS011;52173;45.204;39.240;2023-07-31T06:18:48;9.10;;;3.22;;
65543;SDS011;52173;45.204;39.240;2023-07-31T06:21:14;7.75;;;3.28;;
65543;SDS011;52173;45.204;39.240;2023-07-31T06:23:41;6.68;;;3.17;;
65543;SDS011;52173;45.204;39.240;2023-07-31T06:26:07;7.25;;;3.20;;
65543;SDS011;52173;45.204;39.240;2023-07-31T06:28:34;8.68;;;3.45;;
65543;SDS011;52173;45.204;39.240;2023-07-31T06:31:00;6.28;;;3.20;;
65543;SDS011;52173;45.204;39.240;2023-07-31T06:33:27;8.45;;;3.42;;
65543;SDS011;52173;45.204;39.240;2023-07-31T06:35:54;8.23;;;3.42;;
65543;SDS011;52173;45.204;39.240;2023-07-31T06:38:24;6.13;;;3.13;;
65543;SDS011;52173;45.204;39.240;2023-07-31T06:40:51;6.78;;;3.22;;
65543;SDS011;52173;45.204;39.240;2023-07-31T06:43:17;11.85;;;3.30;;
65543;SDS011;52173;45.204;39.240;2023-07-31T06:45:43;7.32;;;3.15;;
65543;SDS011;52173;45.204;39.240;2023-07-31T06:48:10;9.00;;;3.08;;
65543;SDS011;52173;45.204;39.240;2023-07-31T06:50:36;5.40;;;3.10;;
65543;SDS011;52173;45.204;39.240;2023-07-31T06:53:02;5.18;;;2.97;;
65543;SDS011;52173;45.204;39.240;2023-07-31T06:55:28;8.70;;;3.10;;
65543;SDS011;52173;45.204;39.240;2023-07-31T06:57:55;10.10;;;3.03;;
65543;SDS011;52173;45.204;39.240;2023-07-31T07:00:22;7.45;;;3.00;;
65543;SDS011;52173;45.204;39.240;2023-07-31T07:02:49;8.30;;;2.88;;
65543;SDS011;52173;45.204;39.240;2023-07-31T07:05:18;6.13;;;2.80;;
65543;SDS011;52173;45.204;39.240;2023-07-31T07:07:45;4.90;;;2.50;;
65543;SDS011;52173;45.204;39.240;2023-07-31T07:10:11;5.20;;;2.47;;
65543;SDS011;52173;45.204;39.240;2023-07-31T07:12:37;7.57;;;2.70;;
65543;SDS011;52173;45.204;39.240;2023-07-31T07:15:03;5.57;;;2.90;;
65543;SDS011;52173;45.204;39.240;2023-07-31T07:17:30;9.23;;;2.78;;
65543;SDS011;52173;45.204;39.240;2023-07-31T07:19:59;5.43;;;2.47;;
65543;SDS011;52173;45.204;39.240;2023-07-31T07:22:26;8.43;;;2.42;;
65543;SDS011;52173;45.204;39.240;2023-07-31T07:24:53;8.40;;;2.22;;
65543;SDS011;52173;45.204;39.240;2023-07-31T07:27:20;4.38;;;2.33;;
65543;SDS011;52173;45.204;39.240;2023-07-31T07:29:46;14.32;;;2.90;;
65543;SDS011;52173;45.204;39.240;2023-07-31T07:32:15;7.00;;;2.20;;
65543;SDS011;52173;45.204;39.240;2023-07-31T07:34:43;4.13;;;2.40;;
65543;SDS011;52173;45.204;39.240;2023-07-31T07:37:09;6.45;;;2.38;;
65543;SDS011;52173;45.204;39.240;2023-07-31T07:39:35;6.68;;;2.60;;
65543;SDS011;52173;45.204;39.240;2023-07-31T07:45:13;5.00;;;2.23;;
65543;SDS011;52173;45.204;39.240;2023-07-31T07:47:40;4.25;;;2.22;;
65543;SDS011;52173;45.204;39.240;2023-07-31T07:50:06;9.43;;;2.65;;
65543;SDS011;52173;45.204;39.240;2023-07-31T07:52:33;6.40;;;2.80;;
65543;SDS011;52173;45.204;39.240;2023-07-31T07:54:59;6.85;;;2.47;;
65543;SDS011;52173;45.204;39.240;2023-07-31T07:57:26;14.02;;;3.05;;
65543;SDS011;52173;45.204;39.240;2023-07-31T07:59:52;30.60;;;3.83;;
65543;SDS011;52173;45.204;39.240;2023-07-31T08:02:18;5.55;;;2.88;;
65543;SDS011;52173;45.204;39.240;2023-07-31T08:04:44;4.90;;;2.05;;
65543;SDS011;52173;45.204;39.240;2023-07-31T08:07:11;5.57;;;2.35;;
65543;SDS011;52173;45.204;39.240;2023-07-31T08:09:38;6.60;;;2.80;;
65543;SDS011;52173;45.204;39.240;2023-07-31T08:12:04;3.90;;;2.10;;
65543;SDS011;52173;45.204;39.240;2023-07-31T08:14:31;4.10;;;2.17;;
65543;SDS011;52173;45.204;39.240;2023-07-31T08:16:58;5.97;;;2.08;;
65543;SDS011;52173;45.204;39.240;2023-07-31T08:19:27;7.70;;;2.10;;
65543;SDS011;52173;45.204;39.240;2023-07-31T08:21:53;7.10;;;2.20;;
65543;SDS011;52173;45.204;39.240;2023-07-31T08:24:20;5.03;;;2.20;;
65543;SDS011;52173;45.204;39.240;2023-07-31T08:26:46;4.82;;;2.20;;
65543;SDS011;52173;45.204;39.240;2023-07-31T08:29:13;5.15;;;2.10;;
65543;SDS011;52173;45.204;39.240;2023-07-31T08:31:40;41.42;;;3.58;;
65543;SDS011;52173;45.204;39.240;2023-07-31T08:34:06;5.72;;;2.28;;
65543;SDS011;52173;45.204;39.240;2023-07-31T08:36:33;6.28;;;2.10;;
65543;SDS011;52173;45.204;39.240;2023-07-31T08:39:00;4.43;;;2.10;;
65543;SDS011;52173;45.204;39.240;2023-07-31T08:41:27;6.32;;;2.25;;
65543;SDS011;52173;45.204;39.240;2023-07-31T08:43:53;6.85;;;2.05;;
65543;SDS011;52173;45.204;39.240;2023-07-31T08:46:22;3.83;;;1.98;;
65543;SDS011;52173;45.204;39.240;2023-07-31T08:48:48;6.53;;;2.53;;
65543;SDS011;52173;45.204;39.240;2023-07-31T08:51:17;13.30;;;2.65;;
65543;SDS011;52173;45.204;39.240;2023-07-31T08:53:43;4.15;;;2.20;;
65543;SDS011;52173;45.204;39.240;2023-07-31T08:56:10;7.22;;;2.10;;
65543;SDS011;52173;45.204;39.240;2023-07-31T08:58:39;8.07;;;1.92;;
65543;SDS011;52173;45.204;39.240;2023-07-31T09:01:06;5.68;;;2.00;;
65543;SDS011;52173;45.204;39.240;2023-07-31T09:03:34;5.28;;;1.90;;
65543;SDS011;52173;45.204;39.240;2023-07-31T09:06:01;4.70;;;2.08;;
65543;SDS011;52173;45.204;39.240;2023-07-31T09:08:30;7.60;;;2.20;;
65543;SDS011;52173;45.204;39.240;2023-07-31T09:11:01;5.68;;;1.60;;
65543;SDS011;52173;45.204;39.240;2023-07-31T09:13:31;11.73;;;2.33;;
65543;SDS011;52173;45.204;39.240;2023-07-31T09:15:58;7.07;;;2.13;;
65543;SDS011;52173;45.204;39.240;2023-07-31T09:18:24;6.85;;;2.05;;
65543;SDS011;52173;45.204;39.240;2023-07-31T09:21:05;4.53;;;2.25;;
65543;SDS011;52173;45.204;39.240;2023-07-31T09:23:42;8.15;;;2.10;;
65543;SDS011;52173;45.204;39.240;2023-07-31T09:26:10;5.22;;;2.00;;
65543;SDS011;52173;45.204;39.240;2023-07-31T09:28:37;4.15;;;1.70;;
65543;SDS011;52173;45.204;39.240;2023-07-31T09:31:03;5.78;;;2.08;;
65543;SDS011;52173;45.204;39.240;2023-07-31T09:33:29;7.28;;;2.13;;
65543;SDS011;52173;45.204;39.240;2023-07-31T09:35:58;12.95;;;2.42;;
65543;SDS011;52173;45.204;39.240;2023-07-31T09:38:26;4.85;;;1.80;;
65543;SDS011;52173;45.204;39.240;2023-07-31T09:40:52;5.03;;;2.00;;
65543;SDS011;52173;45.204;39.240;2023-07-31T09:43:19;4.82;;;1.83;;
65543;SDS011;52173;45.204;39.240;2023-07-31T09:45:46;10.27;;;2.63;;
65543;SDS011;52173;45.204;39.240;2023-07-31T09:48:13;6.10;;;1.85;;
65543;SDS011;52173;45.204;39.240;2023-07-31T09:50:44;7.70;;;2.10;;
65543;SDS011;52173;45.204;39.240;2023-07-31T09:53:12;6.43;;;2.20;;
65543;SDS011;52173;45.204;39.240;2023-07-31T09:55:39;9.55;;;2.10;;
65543;SDS011;52173;45.204;39.240;2023-07-31T09:58:07;8.77;;;2.50;;
65543;SDS011;52173;45.204;39.240;2023-07-31T10:00:34;5.13;;;2.13;;
65543;SDS011;52173;45.204;39.240;2023-07-31T10:03:01;7.15;;;2.20;;
65543;SDS011;52173;45.204;39.240;2023-07-31T10:05:31;5.72;;;2.10;;
65543;SDS011;52173;45.204;39.240;2023-07-31T10:08:02;5.97;;;1.87;;
65543;SDS011;52173;45.204;39.240;2023-07-31T10:10:29;5.00;;;2.20;;
65543;SDS011;52173;45.204;39.240;2023-07-31T10:12:56;7.60;;;2.17;;
65543;SDS011;52173;45.204;39.240;2023-07-31T10:15:23;6.90;;;2.28;;
65543;SDS011;52173;45.204;39.240;2023-07-31T10:17:51;9.52;;;1.80;;
65543;SDS011;52173;45.204;39.240;2023-07-31T10:20:17;4.07;;;2.00;;
65543;SDS011;52173;45.204;39.240;2023-07-31T10:22:44;5.20;;;1.90;;
65543;SDS011;52173;45.204;39.240;2023-07-31T10:25:13;6.07;;;1.98;;
65543;SDS011;52173;45.204;39.240;2023-07-31T10:27:42;5.72;;;2.10;;
65543;SDS011;52173;45.204;39.240;2023-07-31T10:30:12;9.40;;;2.00;;
65543;SDS011;52173;45.204;39.240;2023-07-31T10:32:42;6.60;;;2.00;;
65543;SDS011;52173;45.204;39.240;2023-07-31T10:35:09;4.70;;;1.88;;
65543;SDS011;52173;45.204;39.240;2023-07-31T10:37:40;9.43;;;2.38;;
65543;SDS011;52173;45.204;39.240;2023-07-31T10:40:23;6.57;;;2.15;;
65543;SDS011;52173;45.204;39.240;2023-07-31T10:42:52;4.78;;;1.98;;
65543;SDS011;52173;45.204;39.240;2023-07-31T10:45:26;4.70;;;2.03;;
65543;SDS011;52173;45.204;39.240;2023-07-31T10:48:01;5.82;;;1.98;;
65543;SDS011;52173;45.204;39.240;2023-07-31T10:50:32;14.23;;;2.58;;
65543;SDS011;52173;45.204;39.240;2023-07-31T10:55:39;4.25;;;1.52;;
65543;SDS011;52173;45.204;39.240;2023-07-31T10:58:09;8.25;;;2.00;;
65543;SDS011;52173;45.204;39.240;2023-07-31T11:00:37;6.68;;;2.00;;
65543;SDS011;52173;45.204;39.240;2023-07-31T11:03:12;6.32;;;2.20;;
65543;SDS011;52173;45.204;39.240;2023-07-31T11:08:25;7.95;;;1.98;;
65543;SDS011;52173;45.204;39.240;2023-07-31T11:13:28;3.83;;;1.90;;
65543;SDS011;52173;45.204;39.240;2023-07-31T11:15:55;5.63;;;2.00;;
65543;SDS011;52173;45.204;39.240;2023-07-31T11:18:21;6.43;;;2.03;;
65543;SDS011;52173;45.204;39.240;2023-07-31T11:20:47;6.90;;;2.13;;
65543;SDS011;52173;45.204;39.240;2023-07-31T11:23:15;4.28;;;1.77;;
65543;SDS011;52173;45.204;39.240;2023-07-31T11:25:42;4.57;;;1.98;;
65543;SDS011;52173;45.204;39.240;2023-07-31T11:28:10;11.02;;;2.10;;
65543;SDS011;52173;45.204;39.240;2023-07-31T11:30:38;4.85;;;2.22;;
65543;SDS011;52173;45.204;39.240;2023-07-31T11:33:06;5.72;;;2.17;;
65543;SDS011;52173;45.204;39.240;2023-07-31T11:35:34;4.30;;;2.00;;
65543;SDS011;52173;45.204;39.240;2023-07-31T11:38:02;4.82;;;1.98;;
65543;SDS011;52173;45.204;39.240;2023-07-31T11:40:28;4.88;;;1.70;;
65543;SDS011;52173;45.204;39.240;2023-07-31T11:42:55;5.05;;;1.83;;
65543;SDS011;52173;45.204;39.240;2023-07-31T11:45:24;4.10;;;1.70;;
65543;SDS011;52173;45.204;39.240;2023-07-31T11:47:53;7.65;;;2.13;;
65543;SDS011;52173;45.204;39.240;2023-07-31T11:50:21;6.28;;;1.90;;
65543;SDS011;52173;45.204;39.240;2023-07-31T11:52:50;7.40;;;1.70;;
65543;SDS011;52173;45.204;39.240;2023-07-31T11:55:21;7.05;;;2.20;;
65543;SDS011;52173;45.204;39.240;2023-07-31T11:57:48;6.32;;;1.90;;
65543;SDS011;52173;45.204;39.240;2023-07-31T12:00:14;6.15;;;2.10;;
65543;SDS011;52173;45.204;39.240;2023-07-31T12:02:41;10.60;;;2.08;;
65543;SDS011;52173;45.204;39.240;2023-07-31T12:05:11;6.72;;;2.50;;
65543;SDS011;52173;45.204;39.240;2023-07-31T12:07:45;5.28;;;2.00;;
65543;SDS011;52173;45.204;39.240;2023-07-31T12:10:29;6.72;;;1.80;;
65543;SDS011;52173;45.204;39.240;2023-07-31T12:13:04;9.95;;;2.10;;
65543;SDS011;52173;45.204;39.240;2023-07-31T12:15:32;4.55;;;1.90;;
65543;SDS011;52173;45.204;39.240;2023-07-31T12:17:59;5.22;;;1.88;;
65543;SDS011;52173;45.204;39.240;2023-07-31T12:20:26;7.25;;;2.03;;
65543;SDS011;52173;45.204;39.240;2023-07-31T12:22:52;4.60;;;1.90;;
65543;SDS011;52173;45.204;39.240;2023-07-31T12:25:21;4.47;;;2.28;;
65543;SDS011;52173;45.204;39.240;2023-07-31T12:27:47;4.38;;;1.98;;
65543;SDS011;52173;45.204;39.240;2023-07-31T12:30:26;5.05;;;1.83;;
65543;SDS011;52173;45.204;39.240;2023-07-31T12:32:57;5.05;;;2.10;;
65543;SDS011;52173;45.204;39.240;2023-07-31T12:35:34;5.78;;;1.88;;
65543;SDS011;52173;45.204;39.240;2023-07-31T12:38:02;7.22;;;1.77;;
65543;SDS011;52173;45.204;39.240;2023-07-31T12:40:28;6.40;;;2.13;;
65543;SDS011;52173;45.204;39.240;2023-07-31T12:42:54;5.88;;;2.72;;
65543;SDS011;52173;45.204;39.240;2023-07-31T12:45:20;6.97;;;1.70;;
65543;SDS011;52173;45.204;39.240;2023-07-31T12:47:46;9.30;;;2.22;;
65543;SDS011;52173;45.204;39.240;2023-07-31T12:50:13;9.48;;;2.20;;
65543;SDS011;52173;45.204;39.240;2023-07-31T12:52:39;7.50;;;1.73;;
65543;SDS011;52173;45.204;39.240;2023-07-31T12:55:05;4.45;;;2.15;;
65543;SDS011;52173;45.204;39.240;2023-07-31T12:57:31;7.75;;;2.33;;
65543;SDS011;52173;45.204;39.240;2023-07-31T12:59:58;5.88;;;2.30;;
65543;SDS011;52173;45.204;39.240;2023-07-31T13:02:24;6.05;;;1.88;;
65543;SDS011;52173;45.204;39.240;2023-07-31T13:04:50;7.53;;;1.85;;
65543;SDS011;52173;45.204;39.240;2023-07-31T13:07:16;5.95;;;1.88;;
65543;SDS011;52173;45.204;39.240;2023-07-31T13:09:42;7.93;;;1.92;;
65543;SDS011;52173;45.204;39.240;2023-07-31T13:12:09;9.55;;;1.85;;
65543;SDS011;52173;45.204;39.240;2023-07-31T13:14:36;9.18;;;2.10;;
65543;SDS011;52173;45.204;39.240;2023-07-31T13:17:02;6.00;;;2.10;;
65543;SDS011;52173;45.204;39.240;2023-07-31T13:19:28;7.90;;;2.20;;
65543;SDS011;52173;45.204;39.240;2023-07-31T13:21:54;6.93;;;2.30;;
65543;SDS011;52173;45.204;39.240;2023-07-31T13:24:21;12.63;;;2.10;;
65543;SDS011;52173;45.204;39.240;2023-07-31T13:26:47;10.10;;;2.33;;
65543;SDS011;52173;45.204;39.240;2023-07-31T13:29:13;4.38;;;1.88;;
65543;SDS011;52173;45.204;39.240;2023-07-31T13:31:39;13.75;;;2.50;;
65543;SDS011;52173;45.204;39.240;2023-07-31T13:34:11;16.02;;;2.67;;
65543;SDS011;52173;45.204;39.240;2023-07-31T13:36:37;15.75;;;2.67;;
65543;SDS011;52173;45.204;39.240;2023-07-31T13:39:03;7.53;;;2.30;;
65543;SDS011;52173;45.204;39.240;2023-07-31T13:41:29;5.85;;;2.00;;
65543;SDS011;52173;45.204;39.240;2023-07-31T13:43:56;6.50;;;1.92;;
65543;SDS011;52173;45.204;39.240;2023-07-31T13:46:22;6.90;;;2.10;;
65543;SDS011;52173;45.204;39.240;2023-07-31T13:48:48;61.25;;;5.03;;
65543;SDS011;52173;45.204;39.240;2023-07-31T13:51:14;11.30;;;2.22;;
65543;SDS011;52173;45.204;39.240;2023-07-31T13:53:41;10.45;;;2.30;;
65543;SDS011;52173;45.204;39.240;2023-07-31T14:01:11;8.05;;;2.08;;
65543;SDS011;52173;45.204;39.240;2023-07-31T14:03:38;9.80;;;2.40;;
65543;SDS011;52173;45.204;39.240;2023-07-31T14:06:05;8.57;;;2.50;;
65543;SDS011;52173;45.204;39.240;2023-07-31T14:08:32;6.90;;;2.60;;
65543;SDS011;52173;45.204;39.240;2023-07-31T14:10:58;6.53;;;2.55;;
65543;SDS011;52173;45.204;39.240;2023-07-31T14:13:26;8.13;;;1.98;;
65543;SDS011;52173;45.204;39.240;2023-07-31T14:15:53;15.80;;;2.63;;
65543;SDS011;52173;45.204;39.240;2023-07-31T14:18:19;28.98;;;2.97;;
65543;SDS011;52173;45.204;39.240;2023-07-31T14:20:45;10.43;;;2.20;;
65543;SDS011;52173;45.204;39.240;2023-07-31T14:23:11;7.22;;;2.35;;
65543;SDS011;52173;45.204;39.240;2023-07-31T14:25:38;8.32;;;2.13;;
65543;SDS011;52173;45.204;39.240;2023-07-31T14:28:05;5.82;;;2.40;;
65543;SDS011;52173;45.204;39.240;2023-07-31T14:30:31;7.30;;;2.33;;
65543;SDS011;52173;45.204;39.240;2023-07-31T14:32:58;8.00;;;2.30;;
65543;SDS011;52173;45.204;39.240;2023-07-31T14:35:27;6.68;;;2.03;;
65543;SDS011;52173;45.204;39.240;2023-07-31T14:37:54;8.30;;;2.22;;
65543;SDS011;52173;45.204;39.240;2023-07-31T14:40:20;7.85;;;2.42;;
65543;SDS011;52173;45.204;39.240;2023-07-31T14:42:46;12.95;;;2.20;;
65543;SDS011;52173;45.204;39.240;2023-07-31T14:45:12;8.65;;;2.25;;
65543;SDS011;52173;45.204;39.240;2023-07-31T14:47:39;9.07;;;2.53;;
65543;SDS011;52173;45.204;39.240;2023-07-31T14:50:06;8.30;;;2.47;;
65543;SDS011;52173;45.204;39.240;2023-07-31T14:52:32;6.22;;;3.30;;
65543;SDS011;52173;45.204;39.240;2023-07-31T14:54:59;10.18;;;4.10;;
65543;SDS011;52173;45.204;39.240;2023-07-31T14:57:25;26.02;;;11.35;;
65543;SDS011;52173;45.204;39.240;2023-07-31T14:59:51;15.90;;;6.80;;
65543;SDS011;52173;45.204;39.240;2023-07-31T15:02:17;14.50;;;4.38;;
65543;SDS011;52173;45.204;39.240;2023-07-31T15:04:43;9.45;;;3.78;;
65543;SDS011;52173;45.204;39.240;2023-07-31T15:07:10;6.93;;;3.78;;
65543;SDS011;52173;45.204;39.240;2023-07-31T15:09:36;13.50;;;4.43;;
65543;SDS011;52173;45.204;39.240;2023-07-31T15:12:02;19.70;;;5.60;;
65543;SDS011;52173;45.204;39.240;2023-07-31T15:14:28;14.60;;;5.05;;
65543;SDS011;52173;45.204;39.240;2023-07-31T15:16:56;13.07;;;4.50;;
65543;SDS011;52173;45.204;39.240;2023-07-31T15:19:23;12.60;;;4.25;;
65543;SDS011;52173;45.204;39.240;2023-07-31T15:21:49;9.57;;;3.78;;
65543;SDS011;52173;45.204;39.240;2023-07-31T15:24:15;13.20;;;3.50;;
65543;SDS011;52173;45.204;39.240;2023-07-31T15:26:42;12.38;;;3.70;;
65543;SDS011;52173;45.204;39.240;2023-07-31T15:29:08;11.50;;;3.22;;
65543;SDS011;52173;45.204;39.240;2023-07-31T15:31:35;21.40;;;3.80;;
65543;SDS011;52173;45.204;39.240;2023-07-31T15:34:01;9.07;;;3.17;;
65543;SDS011;52173;45.204;39.240;2023-07-31T15:36:27;9.38;;;3.63;;
65543;SDS011;52173;45.204;39.240;2023-07-31T15:38:54;13.30;;;3.35;;
65543;SDS011;52173;45.204;39.240;2023-07-31T15:41:20;10.45;;;2.90;;
65543;SDS011;52173;45.204;39.240;2023-07-31T15:43:46;8.68;;;2.90;;
65543;SDS011;52173;45.204;39.240;2023-07-31T15:46:12;8.07;;;3.58;;
65543;SDS011;52173;45.204;39.240;2023-07-31T15:48:39;11.05;;;3.60;;
65543;SDS011;52173;45.204;39.240;2023-07-31T15:51:05;11.20;;;3.65;;
65543;SDS011;52173;45.204;39.240;2023-07-31T15:53:31;8.38;;;3.45;;
65543;SDS011;52173;45.204;39.240;2023-07-31T15:55:57;8.65;;;3.60;;
65543;SDS011;52173;45.204;39.240;2023-07-31T15:58:24;14.02;;;4.30;;
65543;SDS011;52173;45.204;39.240;2023-07-31T16:00:50;12.80;;;3.92;;
65543;SDS011;52173;45.204;39.240;2023-07-31T16:03:16;11.55;;;3.70;;
65543;SDS011;52173;45.204;39.240;2023-07-31T16:05:42;11.63;;;3.53;;
65543;SDS011;52173;45.204;39.240;2023-07-31T16:08:08;9.85;;;3.60;;
65543;SDS011;52173;45.204;39.240;2023-07-31T16:10:34;8.15;;;3.88;;
65543;SDS011;52173;45.204;39.240;2023-07-31T16:13:01;10.23;;;4.15;;
65543;SDS011;52173;45.204;39.240;2023-07-31T16:15:28;15.75;;;4.47;;
65543;SDS011;52173;45.204;39.240;2023-07-31T16:17:55;16.00;;;4.78;;
65543;SDS011;52173;45.204;39.240;2023-07-31T16:20:23;14.98;;;4.63;;
65543;SDS011;52173;45.204;39.240;2023-07-31T16:22:49;15.75;;;4.85;;
65543;SDS011;52173;45.204;39.240;2023-07-31T16:25:16;18.77;;;5.18;;
65543;SDS011;52173;45.204;39.240;2023-07-31T16:27:46;15.48;;;6.03;;
65543;SDS011;52173;45.204;39.240;2023-07-31T16:30:12;16.67;;;5.88;;
65543;SDS011;52173;45.204;39.240;2023-07-31T16:32:39;12.38;;;4.95;;
65543;SDS011;52173;45.204;39.240;2023-07-31T16:35:05;10.88;;;4.70;;
65543;SDS011;52173;45.204;39.240;2023-07-31T16:37:32;12.38;;;4.70;;
65543;SDS011;52173;45.204;39.240;2023-07-31T16:39:59;18.02;;;6.03;;
65543;SDS011;52173;45.204;39.240;2023-07-31T16:42:25;18.13;;;6.80;;
65543;SDS011;52173;45.204;39.240;2023-07-31T16:44:51;14.40;;;4.38;;
65543;SDS011;52173;45.204;39.240;2023-07-31T16:47:17;12.80;;;5.55;;
65543;SDS011;52173;45.204;39.240;2023-07-31T16:49:43;11.63;;;4.70;;
65543;SDS011;52173;45.204;39.240;2023-07-31T16:52:10;17.08;;;5.30;;
65543;SDS011;52173;45.204;39.240;2023-07-31T16:54:36;16.50;;;6.65;;
65543;SDS011;52173;45.204;39.240;2023-07-31T16:57:02;10.13;;;4.80;;
65543;SDS011;52173;45.204;39.240;2023-07-31T16:59:28;10.30;;;5.18;;
65543;SDS011;52173;45.204;39.240;2023-07-31T17:01:55;9.07;;;4.50;;
65543;SDS011;52173;45.204;39.240;2023-07-31T17:04:25;11.70;;;3.97;;
65543;SDS011;52173;45.204;39.240;2023-07-31T17:06:51;16.92;;;4.78;;
65543;SDS011;52173;45.204;39.240;2023-07-31T17:09:17;10.98;;;4.40;;
65543;SDS011;52173;45.204;39.240;2023-07-31T17:11:45;9.05;;;3.80;;
65543;SDS011;52173;45.204;39.240;2023-07-31T17:14:11;17.02;;;4.13;;
65543;SDS011;52173;45.204;39.240;2023-07-31T17:16:37;7.90;;;3.53;;
65543;SDS011;52173;45.204;39.240;2023-07-31T17:19:03;11.50;;;4.10;;
65543;SDS011;52173;45.204;39.240;2023-07-31T17:21:30;9.48;;;3.88;;
65543;SDS011;52173;45.204;39.240;2023-07-31T17:23:56;11.25;;;4.03;;
65543;SDS011;52173;45.204;39.240;2023-07-31T17:26:22;12.45;;;3.97;;
65543;SDS011;52173;45.204;39.240;2023-07-31T17:28:49;10.93;;;4.55;;
65543;SDS011;52173;45.204;39.240;2023-07-31T17:31:16;13.35;;;3.75;;
65543;SDS011;52173;45.204;39.240;2023-07-31T17:33:42;10.77;;;3.70;;
65543;SDS011;52173;45.204;39.240;2023-07-31T17:36:09;13.60;;;3.50;;
65543;SDS011;52173;45.204;39.240;2023-07-31T17:38:36;15.07;;;3.92;;
65543;SDS011;52173;45.204;39.240;2023-07-31T17:41:02;12.60;;;5.68;;
65543;SDS011;52173;45.204;39.240;2023-07-31T17:43:28;14.18;;;7.18;;
65543;SDS011;52173;45.204;39.240;2023-07-31T17:45:54;22.50;;;7.50;;
65543;SDS011;52173;45.204;39.240;2023-07-31T17:48:20;11.18;;;5.93;;
65543;SDS011;52173;45.204;39.240;2023-07-31T17:50:53;9.75;;;4.72;;
65543;SDS011;52173;45.204;39.240;2023-07-31T17:53:19;17.73;;;4.63;;
65543;SDS011;52173;45.204;39.240;2023-07-31T17:55:46;12.07;;;4.78;;
65543;SDS011;52173;45.204;39.240;2023-07-31T17:58:13;12.55;;;5.10;;
65543;SDS011;52173;45.204;39.240;2023-07-31T18:00:40;9.32;;;4.22;;
65543;SDS011;52173;45.204;39.240;2023-07-31T18:05:55;17.48;;;5.32;;
65543;SDS011;52173;45.204;39.240;2023-07-31T18:08:21;11.52;;;5.10;;
65543;SDS011;52173;45.204;39.240;2023-07-31T18:27:47;6.00;;;3.50;;
65543;SDS011;52173;45.204;39.240;2023-07-31T18:30:14;19.42;;;3.25;;
65543;SDS011;52173;45.204;39.240;2023-07-31T18:32:42;13.68;;;3.30;;
65543;SDS011;52173;45.204;39.240;2023-07-31T19:58:47;14.77;;;4.13;;
65543;SDS011;52173;45.204;39.240;2023-07-31T20:04:07;7.60;;;3.80;;
65543;SDS011;52173;45.204;39.240;2023-07-31T20:17:20;10.23;;;4.53;;